sensor_id;sensor_type;location;lat;lon;timestamp;pressure;altitude;pressure_sealevel;temperature
19102;BMP280;9683;49.028;12.064;2023-06-24T00:00:35;98072.16;;;17.78
19102;BMP280;9683;49.028;12.064;2023-06-24T00:03:03;98064.31;;;17.76
19102;BMP280;9683;49.028;12.064;2023-06-24T00:05:32;98056.66;;;17.68
19102;BMP280;9683;49.028;12.064;2023-06-24T00:07:58;98067.19;;;17.70
19102;BMP280;9683;49.028;12.064;2023-06-24T00:10:27;98061.47;;;17.66
19102;BMP280;9683;49.028;12.064;2023-06-24T00:12:54;98035.09;;;17.52
19102;BMP280;9683;49.028;12.064;2023-06-24T00:15:21;98060.97;;;17.69
19102;BMP280;9683;49.028;12.064;2023-06-24T00:17:47;98070.94;;;17.69
19102;BMP280;9683;49.028;12.064;2023-06-24T00:20:16;98064.72;;;17.68
19102;BMP280;9683;49.028;12.064;2023-06-24T00:22:45;98063.91;;;17.68
19102;BMP280;9683;49.028;12.064;2023-06-24T00:25:14;98068.56;;;17.72
19102;BMP280;9683;49.028;12.064;2023-06-24T00:27:41;98060.25;;;17.74
19102;BMP280;9683;49.028;12.064;2023-06-24T00:30:08;98054.44;;;17.82
19102;BMP280;9683;49.028;12.064;2023-06-24T00:32:35;98049.03;;;17.82
19102;BMP280;9683;49.028;12.064;2023-06-24T00:35:01;98049.34;;;17.85
19102;BMP280;9683;49.028;12.064;2023-06-24T00:37:30;98051.81;;;17.87
19102;BMP280;9683;49.028;12.064;2023-06-24T00:39:56;98063.13;;;17.89
19102;BMP280;9683;49.028;12.064;2023-06-24T00:42:22;98061.53;;;17.88
19102;BMP280;9683;49.028;12.064;2023-06-24T00:44:49;98046.97;;;17.89
19102;BMP280;9683;49.028;12.064;2023-06-24T00:47:16;98045.59;;;17.86
19102;BMP280;9683;49.028;12.064;2023-06-24T00:49:42;98048.59;;;17.90
19102;BMP280;9683;49.028;12.064;2023-06-24T00:52:10;98045.38;;;17.88
19102;BMP280;9683;49.028;12.064;2023-06-24T00:54:42;98049.66;;;17.89
19102;BMP280;9683;49.028;12.064;2023-06-24T00:57:09;98041.34;;;17.91
19102;BMP280;9683;49.028;12.064;2023-06-24T00:59:36;97997.16;;;17.70
19102;BMP280;9683;49.028;12.064;2023-06-24T01:02:04;98037.66;;;17.97
19102;BMP280;9683;49.028;12.064;2023-06-24T01:04:31;98043.06;;;17.97
19102;BMP280;9683;49.028;12.064;2023-06-24T01:06:58;98037.38;;;17.98
19102;BMP280;9683;49.028;12.064;2023-06-24T01:09:25;98030.06;;;17.94
19102;BMP280;9683;49.028;12.064;2023-06-24T01:11:53;98004.25;;;17.76
19102;BMP280;9683;49.028;12.064;2023-06-24T01:14:20;98031.25;;;17.81
19102;BMP280;9683;49.028;12.064;2023-06-24T01:16:53;98029.28;;;17.76
19102;BMP280;9683;49.028;12.064;2023-06-24T01:19:37;98029.78;;;17.73
19102;BMP280;9683;49.028;12.064;2023-06-24T01:22:23;98018.72;;;17.70
19102;BMP280;9683;49.028;12.064;2023-06-24T01:25:04;98029.28;;;17.76
19102;BMP280;9683;49.028;12.064;2023-06-24T01:28:00;98035.56;;;17.82
19102;BMP280;9683;49.028;12.064;2023-06-24T01:30:41;98020.66;;;17.74
19102;BMP280;9683;49.028;12.064;2023-06-24T01:33:19;98018.47;;;17.71
19102;BMP280;9683;49.028;12.064;2023-06-24T01:35:51;98006.59;;;17.51
19102;BMP280;9683;49.028;12.064;2023-06-24T01:38:23;98030.97;;;17.61
19102;BMP280;9683;49.028;12.064;2023-06-24T01:40:51;98018.00;;;17.58
19102;BMP280;9683;49.028;12.064;2023-06-24T01:43:19;98017.75;;;17.59
19102;BMP280;9683;49.028;12.064;2023-06-24T01:45:50;98018.84;;;17.58
19102;BMP280;9683;49.028;12.064;2023-06-24T01:48:22;98024.22;;;17.58
19102;BMP280;9683;49.028;12.064;2023-06-24T01:50:57;98015.94;;;17.65
19102;BMP280;9683;49.028;12.064;2023-06-24T01:53:24;98013.03;;;17.66
19102;BMP280;9683;49.028;12.064;2023-06-24T01:55:53;98010.56;;;17.65
19102;BMP280;9683;49.028;12.064;2023-06-24T01:58:21;97988.88;;;17.55
19102;BMP280;9683;49.028;12.064;2023-06-24T02:00:49;98012.69;;;17.63
19102;BMP280;9683;49.028;12.064;2023-06-24T02:03:19;98004.34;;;17.64
19102;BMP280;9683;49.028;12.064;2023-06-24T02:05:46;98014.88;;;17.66
19102;BMP280;9683;49.028;12.064;2023-06-24T02:08:14;98008.44;;;17.67
19102;BMP280;9683;49.028;12.064;2023-06-24T02:10:42;98010.72;;;17.75
19102;BMP280;9683;49.028;12.064;2023-06-24T02:13:09;98013.47;;;17.80
19102;BMP280;9683;49.028;12.064;2023-06-24T02:15:38;97999.19;;;17.79
19102;BMP280;9683;49.028;12.064;2023-06-24T02:18:06;98009.53;;;17.88
19102;BMP280;9683;49.028;12.064;2023-06-24T02:20:36;98000.63;;;17.87
19102;BMP280;9683;49.028;12.064;2023-06-24T02:23:04;97993.38;;;17.88
19102;BMP280;9683;49.028;12.064;2023-06-24T02:25:33;98000.13;;;17.90
19102;BMP280;9683;49.028;12.064;2023-06-24T02:28:00;98008.28;;;17.95
19102;BMP280;9683;49.028;12.064;2023-06-24T02:30:28;98012.03;;;17.94
19102;BMP280;9683;49.028;12.064;2023-06-24T02:32:54;98003.63;;;17.91
19102;BMP280;9683;49.028;12.064;2023-06-24T02:35:22;98004.75;;;17.95
19102;BMP280;9683;49.028;12.064;2023-06-24T02:37:50;98004.75;;;17.95
19102;BMP280;9683;49.028;12.064;2023-06-24T02:40:16;98009.59;;;17.93
19102;BMP280;9683;49.028;12.064;2023-06-24T02:42:43;97997.25;;;17.97
19102;BMP280;9683;49.028;12.064;2023-06-24T02:45:10;98012.66;;;18.01
19102;BMP280;9683;49.028;12.064;2023-06-24T02:47:37;98009.16;;;18.01
19102;BMP280;9683;49.028;12.064;2023-06-24T02:50:07;98012.91;;;18.00
19102;BMP280;9683;49.028;12.064;2023-06-24T02:52:34;98021.22;;;17.98
19102;BMP280;9683;49.028;12.064;2023-06-24T02:55:04;98028.25;;;17.99
19102;BMP280;9683;49.028;12.064;2023-06-24T02:57:32;98024.75;;;17.99
19102;BMP280;9683;49.028;12.064;2023-06-24T02:59:59;98034.16;;;17.96
19102;BMP280;9683;49.028;12.064;2023-06-24T03:02:27;98032.28;;;17.97
19102;BMP280;9683;49.028;12.064;2023-06-24T03:04:54;98039.59;;;18.01
19102;BMP280;9683;49.028;12.064;2023-06-24T03:07:22;98033.41;;;18.01
19102;BMP280;9683;49.028;12.064;2023-06-24T03:09:50;98042.84;;;18.03
19102;BMP280;9683;49.028;12.064;2023-06-24T03:12:18;98039.09;;;18.04
19102;BMP280;9683;49.028;12.064;2023-06-24T03:14:45;98045.63;;;18.08
19102;BMP280;9683;49.028;12.064;2023-06-24T03:17:11;98041.88;;;18.09
19102;BMP280;9683;49.028;12.064;2023-06-24T03:19:38;98059.72;;;18.15
19102;BMP280;9683;49.028;12.064;2023-06-24T03:22:04;98051.63;;;18.15
19102;BMP280;9683;49.028;12.064;2023-06-24T03:24:31;98055.44;;;18.19
19102;BMP280;9683;49.028;12.064;2023-06-24T03:26:58;98038.53;;;18.02
19102;BMP280;9683;49.028;12.064;2023-06-24T03:29:25;98071.06;;;18.17
19102;BMP280;9683;49.028;12.064;2023-06-24T03:31:52;98073.25;;;18.20
19102;BMP280;9683;49.028;12.064;2023-06-24T03:34:18;98052.63;;;18.09
19102;BMP280;9683;49.028;12.064;2023-06-24T03:36:45;98075.50;;;18.28
19102;BMP280;9683;49.028;12.064;2023-06-24T03:39:12;98083.34;;;18.30
19102;BMP280;9683;49.028;12.064;2023-06-24T03:41:38;98086.66;;;18.37
19102;BMP280;9683;49.028;12.064;2023-06-24T03:44:05;98099.38;;;18.42
19102;BMP280;9683;49.028;12.064;2023-06-24T03:46:33;98097.81;;;18.46
19102;BMP280;9683;49.028;12.064;2023-06-24T03:48:59;98079.31;;;18.32
19102;BMP280;9683;49.028;12.064;2023-06-24T03:51:26;98098.38;;;18.48
19102;BMP280;9683;49.028;12.064;2023-06-24T03:53:52;98105.97;;;18.51
19102;BMP280;9683;49.028;12.064;2023-06-24T03:56:19;98109.25;;;18.53
19102;BMP280;9683;49.028;12.064;2023-06-24T03:58:46;98092.97;;;18.48
19102;BMP280;9683;49.028;12.064;2023-06-24T04:01:12;98094.59;;;18.49
19102;BMP280;9683;49.028;12.064;2023-06-24T04:03:40;98094.19;;;18.57
19102;BMP280;9683;49.028;12.064;2023-06-24T04:06:07;98099.88;;;18.60
19102;BMP280;9683;49.028;12.064;2023-06-24T04:08:33;98092.31;;;18.57
19102;BMP280;9683;49.028;12.064;2023-06-24T04:11:00;98108.56;;;18.62
19102;BMP280;9683;49.028;12.064;2023-06-24T04:13:28;98107.50;;;18.63
19102;BMP280;9683;49.028;12.064;2023-06-24T04:15:55;98111.56;;;18.66
19102;BMP280;9683;49.028;12.064;2023-06-24T04:18:21;98114.25;;;18.66
19102;BMP280;9683;49.028;12.064;2023-06-24T04:20:49;98092.59;;;18.56
19102;BMP280;9683;49.028;12.064;2023-06-24T04:23:16;98119.66;;;18.66
19102;BMP280;9683;49.028;12.064;2023-06-24T04:25:43;98111.00;;;18.64
19102;BMP280;9683;49.028;12.064;2023-06-24T04:28:09;98115.28;;;18.60
19102;BMP280;9683;49.028;12.064;2023-06-24T04:30:36;98119.28;;;18.57
19102;BMP280;9683;49.028;12.064;2023-06-24T04:33:03;98117.91;;;18.55
19102;BMP280;9683;49.028;12.064;2023-06-24T04:35:30;98112.13;;;18.46
19102;BMP280;9683;49.028;12.064;2023-06-24T04:37:58;98119.16;;;18.47
19102;BMP280;9683;49.028;12.064;2023-06-24T04:40:24;98113.94;;;18.41
19102;BMP280;9683;49.028;12.064;2023-06-24T04:42:51;98126.41;;;18.47
19102;BMP280;9683;49.028;12.064;2023-06-24T04:45:17;98129.19;;;18.52
19102;BMP280;9683;49.028;12.064;2023-06-24T04:47:44;98089.56;;;18.30
19102;BMP280;9683;49.028;12.064;2023-06-24T04:50:11;98127.78;;;18.49
19102;BMP280;9683;49.028;12.064;2023-06-24T04:52:38;98133.28;;;18.54
19102;BMP280;9683;49.028;12.064;2023-06-24T04:55:07;98141.44;;;18.59
19102;BMP280;9683;49.028;12.064;2023-06-24T04:57:34;98132.75;;;18.57
19102;BMP280;9683;49.028;12.064;2023-06-24T05:00:00;98131.41;;;18.55
19102;BMP280;9683;49.028;12.064;2023-06-24T05:02:27;98128.69;;;18.55
19102;BMP280;9683;49.028;12.064;2023-06-24T05:04:54;98133.66;;;18.63
19102;BMP280;9683;49.028;12.064;2023-06-24T05:07:20;98146.09;;;18.69
19102;BMP280;9683;49.028;12.064;2023-06-24T05:09:48;98140.84;;;18.79
19102;BMP280;9683;49.028;12.064;2023-06-24T05:12:17;98144.66;;;18.83
19102;BMP280;9683;49.028;12.064;2023-06-24T05:14:44;98151.69;;;18.84
19102;BMP280;9683;49.028;12.064;2023-06-24T05:17:15;98144.41;;;18.85
19102;BMP280;9683;49.028;12.064;2023-06-24T05:19:41;98137.38;;;18.84
19102;BMP280;9683;49.028;12.064;2023-06-24T05:22:09;98137.16;;;18.85
19102;BMP280;9683;49.028;12.064;2023-06-24T05:24:35;98134.94;;;18.82
19102;BMP280;9683;49.028;12.064;2023-06-24T05:27:04;98143.03;;;18.82
19102;BMP280;9683;49.028;12.064;2023-06-24T05:29:33;98151.63;;;18.79
19102;BMP280;9683;49.028;12.064;2023-06-24T05:32:00;98146.69;;;18.71
19102;BMP280;9683;49.028;12.064;2023-06-24T05:34:28;98138.22;;;18.62
19102;BMP280;9683;49.028;12.064;2023-06-24T05:36:55;98138.03;;;18.69
19102;BMP280;9683;49.028;12.064;2023-06-24T05:39:21;98148.63;;;18.75
19102;BMP280;9683;49.028;12.064;2023-06-24T05:41:48;98140.78;;;18.74
19102;BMP280;9683;49.028;12.064;2023-06-24T05:44:15;98142.13;;;18.71
19102;BMP280;9683;49.028;12.064;2023-06-24T05:46:44;98146.25;;;18.79
19102;BMP280;9683;49.028;12.064;2023-06-24T05:49:11;98150.31;;;18.82
19102;BMP280;9683;49.028;12.064;2023-06-24T05:51:37;98148.44;;;18.82
19102;BMP280;9683;49.028;12.064;2023-06-24T05:54:04;98154.19;;;18.91
19102;BMP280;9683;49.028;12.064;2023-06-24T05:56:30;98148.84;;;18.96
19102;BMP280;9683;49.028;12.064;2023-06-24T05:58:57;98151.91;;;19.04
19102;BMP280;9683;49.028;12.064;2023-06-24T06:01:24;98151.97;;;19.09
19102;BMP280;9683;49.028;12.064;2023-06-24T06:03:52;98155.03;;;19.18
19102;BMP280;9683;49.028;12.064;2023-06-24T06:06:18;98160.16;;;19.19
19102;BMP280;9683;49.028;12.064;2023-06-24T06:08:45;98157.16;;;19.16
19102;BMP280;9683;49.028;12.064;2023-06-24T06:11:11;98158.84;;;19.22
19102;BMP280;9683;49.028;12.064;2023-06-24T06:13:38;98154.84;;;19.30
19102;BMP280;9683;49.028;12.064;2023-06-24T06:16:04;98152.16;;;19.30
19102;BMP280;9683;49.028;12.064;2023-06-24T06:18:31;98148.13;;;19.32
19102;BMP280;9683;49.028;12.064;2023-06-24T06:20:59;98147.94;;;19.39
19102;BMP280;9683;49.028;12.064;2023-06-24T06:23:25;98160.63;;;19.38
19102;BMP280;9683;49.028;12.064;2023-06-24T06:25:52;98167.66;;;19.39
19102;BMP280;9683;49.028;12.064;2023-06-24T06:28:19;98158.47;;;19.40
19102;BMP280;9683;49.028;12.064;2023-06-24T06:30:45;98150.34;;;19.40
19102;BMP280;9683;49.028;12.064;2023-06-24T06:33:12;98156.56;;;19.41
19102;BMP280;9683;49.028;12.064;2023-06-24T06:35:38;98147.63;;;19.35
19102;BMP280;9683;49.028;12.064;2023-06-24T06:38:06;98166.00;;;19.38
19102;BMP280;9683;49.028;12.064;2023-06-24T06:40:33;98148.13;;;19.32
19102;BMP280;9683;49.028;12.064;2023-06-24T06:43:00;98157.91;;;19.38
19102;BMP280;9683;49.028;12.064;2023-06-24T06:45:27;98158.28;;;19.47
19102;BMP280;9683;49.028;12.064;2023-06-24T06:47:53;98154.25;;;19.49
19102;BMP280;9683;49.028;12.064;2023-06-24T06:50:20;98141.31;;;19.51
19102;BMP280;9683;49.028;12.064;2023-06-24T06:52:46;98142.44;;;19.55
19102;BMP280;9683;49.028;12.064;2023-06-24T06:55:14;98144.59;;;19.58
19102;BMP280;9683;49.028;12.064;2023-06-24T06:57:41;98141.38;;;19.56
19102;BMP280;9683;49.028;12.064;2023-06-24T07:00:08;98153.56;;;19.64
19102;BMP280;9683;49.028;12.064;2023-06-24T07:02:35;98147.41;;;19.68
19102;BMP280;9683;49.028;12.064;2023-06-24T07:05:02;98148.75;;;19.71
19102;BMP280;9683;49.028;12.064;2023-06-24T07:07:28;98149.88;;;19.75
19102;BMP280;9683;49.028;12.064;2023-06-24T07:09:55;98133.41;;;19.77
19102;BMP280;9683;49.028;12.064;2023-06-24T07:12:23;98124.22;;;19.78
19102;BMP280;9683;49.028;12.064;2023-06-24T07:14:50;98130.78;;;19.92
19102;BMP280;9683;49.028;12.064;2023-06-24T07:17:16;98135.19;;;19.98
19102;BMP280;9683;49.028;12.064;2023-06-24T07:19:43;98116.75;;;19.90
19102;BMP280;9683;49.028;12.064;2023-06-24T07:22:09;98137.13;;;20.07
19102;BMP280;9683;49.028;12.064;2023-06-24T07:24:36;98140.66;;;20.13
19102;BMP280;9683;49.028;12.064;2023-06-24T07:27:03;98115.97;;;19.94
19102;BMP280;9683;49.028;12.064;2023-06-24T07:29:31;98141.47;;;20.13
19102;BMP280;9683;49.028;12.064;2023-06-24T07:31:57;98110.53;;;19.89
19102;BMP280;9683;49.028;12.064;2023-06-24T07:34:24;98137.72;;;20.14
19102;BMP280;9683;49.028;12.064;2023-06-24T07:36:50;98140.44;;;20.20
19102;BMP280;9683;49.028;12.064;2023-06-24T07:39:17;98139.63;;;20.19
19102;BMP280;9683;49.028;12.064;2023-06-24T07:41:43;98131.81;;;20.23
19102;BMP280;9683;49.028;12.064;2023-06-24T07:44:10;98137.84;;;20.35
19102;BMP280;9683;49.028;12.064;2023-06-24T07:46:38;98143.59;;;20.48
19102;BMP280;9683;49.028;12.064;2023-06-24T07:49:05;98130.88;;;20.54
19102;BMP280;9683;49.028;12.064;2023-06-24T07:51:31;98141.50;;;20.66
19102;BMP280;9683;49.028;12.064;2023-06-24T07:54:00;98146.69;;;20.77
19102;BMP280;9683;49.028;12.064;2023-06-24T07:56:26;98133.41;;;20.76
19102;BMP280;9683;49.028;12.064;2023-06-24T07:58:53;98146.94;;;20.81
19102;BMP280;9683;49.028;12.064;2023-06-24T08:01:20;98136.69;;;20.83
19102;BMP280;9683;49.028;12.064;2023-06-24T08:03:48;98145.09;;;20.96
19102;BMP280;9683;49.028;12.064;2023-06-24T08:06:14;98138.88;;;20.96
19102;BMP280;9683;49.028;12.064;2023-06-24T08:08:41;98138.09;;;21.11
19102;BMP280;9683;49.028;12.064;2023-06-24T08:11:07;98138.69;;;21.23
19102;BMP280;9683;49.028;12.064;2023-06-24T08:13:34;98127.88;;;21.33
19102;BMP280;9683;49.028;12.064;2023-06-24T08:16:00;98131.38;;;21.48
19102;BMP280;9683;49.028;12.064;2023-06-24T08:18:27;98129.47;;;21.59
19102;BMP280;9683;49.028;12.064;2023-06-24T08:20:56;98133.03;;;21.75
19102;BMP280;9683;49.028;12.064;2023-06-24T08:23:22;98132.72;;;21.81
19102;BMP280;9683;49.028;12.064;2023-06-24T08:25:49;98123.50;;;21.87
19102;BMP280;9683;49.028;12.064;2023-06-24T08:28:15;98125.66;;;21.90
19102;BMP280;9683;49.028;12.064;2023-06-24T08:31:00;98136.00;;;21.99
19102;BMP280;9683;49.028;12.064;2023-06-24T08:33:45;98123.50;;;21.87
19102;BMP280;9683;49.028;12.064;2023-06-24T08:36:13;98121.06;;;21.86
19102;BMP280;9683;49.028;12.064;2023-06-24T08:38:39;98124.84;;;21.90
19102;BMP280;9683;49.028;12.064;2023-06-24T08:41:06;98119.72;;;21.83
19102;BMP280;9683;49.028;12.064;2023-06-24T08:43:33;98125.44;;;21.92
19102;BMP280;9683;49.028;12.064;2023-06-24T08:46:00;98131.13;;;21.96
19102;BMP280;9683;49.028;12.064;2023-06-24T08:48:43;98127.31;;;22.02
19102;BMP280;9683;49.028;12.064;2023-06-24T08:51:15;98126.78;;;22.05
19102;BMP280;9683;49.028;12.064;2023-06-24T08:53:43;98116.44;;;22.02
19102;BMP280;9683;49.028;12.064;2023-06-24T08:56:10;98081.22;;;21.81
19102;BMP280;9683;49.028;12.064;2023-06-24T08:58:37;98122.41;;;22.09
19102;BMP280;9683;49.028;12.064;2023-06-24T09:01:05;98123.50;;;22.08
19102;BMP280;9683;49.028;12.064;2023-06-24T09:03:32;98121.63;;;21.98
19102;BMP280;9683;49.028;12.064;2023-06-24T09:05:59;98096.91;;;21.89
19102;BMP280;9683;49.028;12.064;2023-06-24T09:08:26;98117.25;;;22.02
19102;BMP280;9683;49.028;12.064;2023-06-24T09:10:54;98121.63;;;22.03
19102;BMP280;9683;49.028;12.064;2023-06-24T09:13:21;98114.00;;;22.10
19102;BMP280;9683;49.028;12.064;2023-06-24T09:15:48;98108.28;;;22.22
19102;BMP280;9683;49.028;12.064;2023-06-24T09:18:14;98107.16;;;22.33
19102;BMP280;9683;49.028;12.064;2023-06-24T09:20:43;98108.72;;;22.44
19102;BMP280;9683;49.028;12.064;2023-06-24T09:23:11;98112.75;;;22.52
19102;BMP280;9683;49.028;12.064;2023-06-24T09:25:38;98122.00;;;22.51
19102;BMP280;9683;49.028;12.064;2023-06-24T09:28:05;98123.13;;;22.45
19102;BMP280;9683;49.028;12.064;2023-06-24T09:30:32;98097.97;;;22.19
19102;BMP280;9683;49.028;12.064;2023-06-24T09:32:58;98116.94;;;22.29
19102;BMP280;9683;49.028;12.064;2023-06-24T09:35:25;98114.75;;;22.31
19102;BMP280;9683;49.028;12.064;2023-06-24T09:37:53;98106.59;;;22.36
19102;BMP280;9683;49.028;12.064;2023-06-24T09:40:20;98110.09;;;22.42
19102;BMP280;9683;49.028;12.064;2023-06-24T09:42:50;98108.19;;;22.47
19102;BMP280;9683;49.028;12.064;2023-06-24T09:45:20;98089.78;;;22.39
19102;BMP280;9683;49.028;12.064;2023-06-24T09:47:47;98101.63;;;22.58
19102;BMP280;9683;49.028;12.064;2023-06-24T09:50:14;98101.31;;;22.70
19102;BMP280;9683;49.028;12.064;2023-06-24T09:52:42;98098.00;;;22.78
19102;BMP280;9683;49.028;12.064;2023-06-24T09:55:10;98100.19;;;22.81
19102;BMP280;9683;49.028;12.064;2023-06-24T09:57:39;98100.75;;;22.68
19102;BMP280;9683;49.028;12.064;2023-06-24T10:00:10;98094.00;;;22.60
19102;BMP280;9683;49.028;12.064;2023-06-24T10:02:37;98095.38;;;22.53
19102;BMP280;9683;49.028;12.064;2023-06-24T10:05:04;98097.28;;;22.52
19102;BMP280;9683;49.028;12.064;2023-06-24T10:07:31;98088.88;;;22.54
19102;BMP280;9683;49.028;12.064;2023-06-24T10:10:01;98088.56;;;22.60
19102;BMP280;9683;49.028;12.064;2023-06-24T10:12:28;98087.44;;;22.66
19102;BMP280;9683;49.028;12.064;2023-06-24T10:14:57;98053.31;;;22.55
19102;BMP280;9683;49.028;12.064;2023-06-24T10:17:25;98067.06;;;22.74
19102;BMP280;9683;49.028;12.064;2023-06-24T10:19:52;98076.50;;;22.87
19102;BMP280;9683;49.028;12.064;2023-06-24T10:22:22;98073.28;;;22.84
19102;BMP280;9683;49.028;12.064;2023-06-24T10:24:50;98076.47;;;22.92
19102;BMP280;9683;49.028;12.064;2023-06-24T10:27:18;98073.75;;;22.92
19102;BMP280;9683;49.028;12.064;2023-06-24T10:29:48;98071.28;;;22.95
19102;BMP280;9683;49.028;12.064;2023-06-24T10:32:14;98060.63;;;23.04
19102;BMP280;9683;49.028;12.064;2023-06-24T10:34:44;98051.88;;;23.12
19102;BMP280;9683;49.028;12.064;2023-06-24T10:37:12;98056.44;;;23.21
19102;BMP280;9683;49.028;12.064;2023-06-24T10:39:44;98004.66;;;23.03
19102;BMP280;9683;49.028;12.064;2023-06-24T10:42:31;98038.88;;;23.38
19102;BMP280;9683;49.028;12.064;2023-06-24T10:45:00;98048.34;;;23.45
19102;BMP280;9683;49.028;12.064;2023-06-24T10:47:29;98051.06;;;23.45
19102;BMP280;9683;49.028;12.064;2023-06-24T10:49:57;98051.91;;;23.41
19102;BMP280;9683;49.028;12.064;2023-06-24T10:52:23;98035.91;;;23.39
19102;BMP280;9683;49.028;12.064;2023-06-24T10:54:51;97993.66;;;23.23
19102;BMP280;9683;49.028;12.064;2023-06-24T10:57:22;98012.25;;;23.40
19102;BMP280;9683;49.028;12.064;2023-06-24T10:59:50;98015.88;;;23.59
19102;BMP280;9683;49.028;12.064;2023-06-24T11:02:18;98014.16;;;23.68
19102;BMP280;9683;49.028;12.064;2023-06-24T11:04:46;97993.78;;;23.65
19102;BMP280;9683;49.028;12.064;2023-06-24T11:07:14;98011.78;;;23.85
19102;BMP280;9683;49.028;12.064;2023-06-24T11:09:41;98000.38;;;23.83
19102;BMP280;9683;49.028;12.064;2023-06-24T11:12:09;98011.44;;;23.92
19102;BMP280;9683;49.028;12.064;2023-06-24T11:14:38;98001.03;;;23.99
19102;BMP280;9683;49.028;12.064;2023-06-24T11:17:05;97980.25;;;23.84
19102;BMP280;9683;49.028;12.064;2023-06-24T11:19:31;98006.38;;;24.04
19102;BMP280;9683;49.028;12.064;2023-06-24T11:22:02;97997.66;;;24.07
19102;BMP280;9683;49.028;12.064;2023-06-24T11:24:30;97994.94;;;24.07
19102;BMP280;9683;49.028;12.064;2023-06-24T11:26:57;97992.78;;;24.04
19102;BMP280;9683;49.028;12.064;2023-06-24T11:29:24;97986.25;;;24.05
19102;BMP280;9683;49.028;12.064;2023-06-24T11:31:50;97979.66;;;24.11
19102;BMP280;9683;49.028;12.064;2023-06-24T11:34:17;97965.22;;;24.10
19102;BMP280;9683;49.028;12.064;2023-06-24T11:36:44;97981.09;;;24.27
19102;BMP280;9683;49.028;12.064;2023-06-24T11:39:20;97974.78;;;24.32
19102;BMP280;9683;49.028;12.064;2023-06-24T11:41:49;97977.72;;;24.35
19102;BMP280;9683;49.028;12.064;2023-06-24T11:44:17;97952.53;;;24.25
19102;BMP280;9683;49.028;12.064;2023-06-24T11:46:44;97967.63;;;24.36
19102;BMP280;9683;49.028;12.064;2023-06-24T11:49:11;97977.34;;;24.42
19102;BMP280;9683;49.028;12.064;2023-06-24T11:51:46;97964.47;;;24.47
19102;BMP280;9683;49.028;12.064;2023-06-24T11:54:14;97960.59;;;24.53
19102;BMP280;9683;49.028;12.064;2023-06-24T11:56:42;97958.78;;;24.62
19102;BMP280;9683;49.028;12.064;2023-06-24T11:59:17;97952.09;;;24.74
19102;BMP280;9683;49.028;12.064;2023-06-24T12:01:44;97946.84;;;24.77
19102;BMP280;9683;49.028;12.064;2023-06-24T12:04:11;97934.41;;;24.71
19102;BMP280;9683;49.028;12.064;2023-06-24T12:06:39;97932.94;;;24.79
19102;BMP280;9683;49.028;12.064;2023-06-24T12:09:05;97955.00;;;24.96
19102;BMP280;9683;49.028;12.064;2023-06-24T12:11:32;97933.88;;;24.88
19102;BMP280;9683;49.028;12.064;2023-06-24T12:13:58;97924.53;;;24.94
19102;BMP280;9683;49.028;12.064;2023-06-24T12:16:26;97946.66;;;25.06
19102;BMP280;9683;49.028;12.064;2023-06-24T12:18:53;97901.84;;;24.80
19102;BMP280;9683;49.028;12.064;2023-06-24T12:21:19;97934.81;;;24.97
19102;BMP280;9683;49.028;12.064;2023-06-24T12:23:46;97942.88;;;24.88
19102;BMP280;9683;49.028;12.064;2023-06-24T12:26:13;97927.94;;;24.86
19102;BMP280;9683;49.028;12.064;2023-06-24T12:28:39;97898.06;;;24.62
19102;BMP280;9683;49.028;12.064;2023-06-24T12:31:06;97930.50;;;24.77
19102;BMP280;9683;49.028;12.064;2023-06-24T12:33:34;97930.88;;;24.89
19102;BMP280;9683;49.028;12.064;2023-06-24T12:36:00;97922.91;;;24.93
19102;BMP280;9683;49.028;12.064;2023-06-24T12:38:27;97927.47;;;24.97
19102;BMP280;9683;49.028;12.064;2023-06-24T12:40:53;97920.09;;;24.98
19102;BMP280;9683;49.028;12.064;2023-06-24T12:43:20;97919.94;;;25.08
19102;BMP280;9683;49.028;12.064;2023-06-24T12:45:46;97920.34;;;25.15
19102;BMP280;9683;49.028;12.064;2023-06-24T12:48:13;97909.25;;;25.25
19102;BMP280;9683;49.028;12.064;2023-06-24T12:50:41;97911.16;;;25.38
19102;BMP280;9683;49.028;12.064;2023-06-24T12:53:08;97912.41;;;25.46
19102;BMP280;9683;49.028;12.064;2023-06-24T12:55:36;97916.63;;;25.52
19102;BMP280;9683;49.028;12.064;2023-06-24T12:58:02;97911.13;;;25.57
19102;BMP280;9683;49.028;12.064;2023-06-24T13:00:29;97917.59;;;25.61
19102;BMP280;9683;49.028;12.064;2023-06-24T13:02:55;97919.00;;;25.59
19102;BMP280;9683;49.028;12.064;2023-06-24T13:05:22;97909.78;;;25.68
19102;BMP280;9683;49.028;12.064;2023-06-24T13:07:51;97905.75;;;25.79
19102;BMP280;9683;49.028;12.064;2023-06-24T13:10:17;97908.44;;;25.93
19102;BMP280;9683;49.028;12.064;2023-06-24T13:12:44;97894.13;;;25.87
19102;BMP280;9683;49.028;12.064;2023-06-24T13:15:11;97913.41;;;25.91
19102;BMP280;9683;49.028;12.064;2023-06-24T13:17:39;97914.16;;;25.69
19102;BMP280;9683;49.028;12.064;2023-06-24T13:20:06;97912.84;;;25.67
19102;BMP280;9683;49.028;12.064;2023-06-24T13:22:33;97892.13;;;25.66
19102;BMP280;9683;49.028;12.064;2023-06-24T13:25:01;97893.41;;;25.82
19102;BMP280;9683;49.028;12.064;2023-06-24T13:27:28;97890.97;;;25.94
19102;BMP280;9683;49.028;12.064;2023-06-24T13:29:54;97883.88;;;25.93
19102;BMP280;9683;49.028;12.064;2023-06-24T13:32:21;97877.78;;;26.10
19102;BMP280;9683;49.028;12.064;2023-06-24T13:34:48;97882.00;;;26.16
19102;BMP280;9683;49.028;12.064;2023-06-24T13:37:15;97885.75;;;26.33
19102;BMP280;9683;49.028;12.064;2023-06-24T13:39:41;97884.19;;;26.41
19102;BMP280;9683;49.028;12.064;2023-06-24T13:42:10;97886.63;;;26.42
19102;BMP280;9683;49.028;12.064;2023-06-24T13:44:37;97885.13;;;26.36
19102;BMP280;9683;49.028;12.064;2023-06-24T13:47:04;97879.59;;;26.28
19102;BMP280;9683;49.028;12.064;2023-06-24T13:49:31;97878.84;;;26.36
19102;BMP280;9683;49.028;12.064;2023-06-24T13:51:58;97884.69;;;26.43
19102;BMP280;9683;49.028;12.064;2023-06-24T13:54:24;97879.09;;;26.48
19102;BMP280;9683;49.028;12.064;2023-06-24T13:56:52;97881.22;;;26.51
19102;BMP280;9683;49.028;12.064;2023-06-24T13:59:20;97877.81;;;26.68
19102;BMP280;9683;49.028;12.064;2023-06-24T14:01:47;97882.88;;;26.83
19102;BMP280;9683;49.028;12.064;2023-06-24T14:04:13;97882.50;;;26.98
19102;BMP280;9683;49.028;12.064;2023-06-24T14:06:40;97860.84;;;27.02
19102;BMP280;9683;49.028;12.064;2023-06-24T14:09:08;97870.06;;;27.14
19102;BMP280;9683;49.028;12.064;2023-06-24T14:11:34;97855.06;;;27.12